Cuca Ranch (214, 682) Station Data

Red Flag Warning: No
Fire Weather Zone: 258
SDGE Region: North East
Lat/Lon: 33.286/-116.897

Observations

Time Wind Speed/Gust Temp(F) RH Fuel Moist Fuel Temp(F) Dewpt(F) Tmax(F) Tmin(F) Accum Precip 10-min Precip SL Press(mb)
5/24 8:30am 97 6 G 12 72° 37% - - 45° 73° 60.5° - - 873.0
5/24 8:20am 142 6 G 10 72° 37% - - 44° 72° 60.5° - - 873.0
5/24 8:10am 96 5 G 8 71° 35% - - 42° 71.9° 60.5° - - 872.0
5/24 8:00am 64 6 G 10 66° 44% - - 43° 71.3° 60.5° - - 875.0
5/24 7:50am 72 2 G 5 63° 54% - - 46° 71.3° 60.5° - - 878.0
5/24 7:40am 346 4 G 8 62° 57% - - 46° 71.3° 60.5° - - 878.0
5/24 7:30am 138 3 G 8 66° 42% - - 42° 71.3° 63° - - 874.0
5/24 7:20am 54 1 G 3 65° 42% - - 42° 71.3° 63° - - 873.0
5/24 7:10am 275 3 G 7 65° 38% - - 39° 71.3° 63° - - 872.0
5/24 7:00am 10 1 G 3 66° 34% - - 37° 71.3° 63° - - 870.0
5/24 6:50am 8 2 G 4 66° 33% - - 36° 71.3° 63° - - 870.0
5/24 6:40am 79 4 G 6 68° 27% - - 33° 71.3° 63° - - 868.0
5/24 6:30am 86 5 G 6 69° 23% - - 30° 71.3° 63° - - 867.0
5/24 6:20am 84 6 G 9 68° 26% - - 31° 71.3° 63° - - 868.0
5/24 6:10am 95 7 G 8 70° 28% - - 35° 71.3° 63° - - 869.0
5/24 6:00am 92 8 G 11 67° 29% - - 34° 71.3° 63° - - 869.0
5/24 5:50am 97 8 G 11 67° 30% - - 35° 71.3° 63° - - 869.0
5/24 5:40am 86 7 G 9 68° 27% - - 33° 71.3° 63° - - 868.0
5/24 5:30am 74 5 G 7 68° 28% - - 34° 71.3° 63° - - 869.0
5/24 5:20am 77 6 G 9 65° 38% - - 39° 71.3° 63° - - 872.0
5/24 5:10am 98 7 G 11 65° 40% - - 40° 71.3° 63.6° - - 872.0
5/24 5:00am 77 5 G 7 67° 34% - - 37° 71.3° 65.7° - - 870.0
5/24 4:50am 81 3 G 4 67° 36% - - 40° 71.3° 66.2° - - 872.0
5/24 4:40am 59 3 G 5 67° 35% - - 38° 71.3° 66.2° - - 871.0
5/24 4:30am 80 2 G 4 68° 32% - - 37° 71.3° 66.2° - - 870.0
5/24 4:20am 82 3 G 4 68° 34% - - 38° 71.3° 66.2° - - 871.0
5/24 4:10am 80 3 G 4 68° 35% - - 39° 71.3° 66.2° - - 871.0
5/24 4:00am 92 5 G 6 67° 38% - - 41° 71.3° 66.2° - - 872.0
5/24 3:50am 97 5 G 7 67° 38% - - 40° 71.3° 66.2° - - 872.0
5/24 3:40am 94 5 G 6 68° 34% - - 38° 71.3° 66.8° - - 871.0
5/24 3:30am 87 4 G 5 68° 32% - - 37° 71.3° 66.8° - - 870.0
5/24 3:20am 96 4 G 5 68° 32% - - 37° 71.3° 66.8° - - 870.0
5/24 3:10am 101 3 G 3 68° 33% - - 38° 71.3° 66.8° - - 870.0
5/24 3:00am 76 1 G 2 69° 32% - - 38° 71.3° 66.8° - - 870.0
5/24 2:50am 59 3 G 4 68° 33% - - 38° 71.3° 66.8° - - 871.0
5/24 2:40am 58 1 G 3 68° 34% - - 38° 71.3° 66.8° - - 871.0
5/24 2:30am 32 1 G 3 68° 32% - - 37° 71.3° 66.8° - - 870.0
5/24 2:20am 322 1 G 2 69° 32% - - 37° 71.3° 66.8° - - 870.0
5/24 2:10am 20 2 G 4 69° 30% - - 36° 71.3° 66.8° - - 869.0
5/24 2:00am 36 2 G 3 69° 30% - - 37° 71.3° 66.8° - - 870.0
5/24 1:50am 39 3 G 5 69° 30% - - 36° 71.3° 66.8° - - 869.0
5/24 1:40am 94 2 G 5 69° 30% - - 36° 71.3° 66.8° - - 869.0
5/24 1:30am 77 4 G 5 69° 31% - - 37° 71.3° 66.8° - - 870.0
5/24 1:20am 94 6 G 7 67° 36% - - 39° 71.3° 66.8° - - 872.0
5/24 1:10am 99 4 G 5 69° 35% - - 40° 71.3° 67.3° - - 872.0
5/24 1:00am 90 4 G 5 68° 38% - - 41° 71.3° 67.3° - - 872.0
5/24 12:50am 80 3 G 5 68° 39% - - 42° 71.3° 67.3° - - 873.0
5/24 12:40am 71 2 G 5 68° 38% - - 42° 71.3° 67.3° - - 873.0
5/24 12:30am 233 2 G 4 70° 34% - - 40° 71.3° 68.5° - - 871.0
5/24 12:20am 83 1 G 3 71° 32% - - 40° 71.3° 69.8° - - 871.0
5/24 12:10am 53 2 G 3 70° 32% - - 39° 70.6° 69.8° - - 871.0
5/24 12:00am 74 4 G 7 70° 33% - - 39° 86.7° 68° - - 871.0
5/23 11:50pm 92 5 G 6 70° 34% - - 40° 86.7° 68° - - 871.0
5/23 11:40pm 91 4 G 6 70° 35% - - 41° 86.7° 68° - - 872.0
5/23 11:30pm 95 4 G 6 72° 32% - - 40° 86.7° 68° - - 871.0
5/23 11:20pm 77 4 G 4 72° 32% - - 41° 86.7° 68° - - 871.0
5/23 11:10pm 72 3 G 4 72° 34% - - 42° 86.7° 68° - - 872.0
5/23 11:00pm 72 2 G 4 71° 36% - - 43° 86.7° 68° - - 873.0
5/23 10:50pm 70 2 G 2 71° 37% - - 44° 86.7° 68° - - 873.0
5/23 10:40pm 74 1 G 2 72° 37% - - 44° 86.7° 68° - - 873.0
5/23 10:30pm 62 2 G 4 71° 39% - - 45° 86.7° 68° - - 874.0
5/23 10:20pm 43 4 G 5 69° 43% - - 46° 86.7° 68° - - 875.0
5/23 10:10pm 38 4 G 5 69° 43% - - 46° 86.7° 68° - - 875.0
5/23 10:00pm 37 4 G 5 70° 40% - - 45° 86.7° 68° - - 874.0
5/23 9:50pm 39 4 G 6 70° 39% - - 44° 86.7° 68° - - 873.0
5/23 9:40pm 42 4 G 6 71° 36% - - 42° 86.7° 68° - - 873.0
5/23 9:30pm 28 1 G 3 71° 38% - - 44° 86.7° 68° - - 874.0
5/23 9:20pm 307 1 G 2 71° 36% - - 43° 86.7° 68° - - 872.0
5/23 9:10pm 65 3 G 5 70° 41% - - 46° 86.7° 68° - - 875.0
5/23 9:00pm 40 2 G 4 70° 41% - - 45° 86.7° 68° - - 874.0
5/23 8:50pm 75 4 G 7 71° 43% - - 47° 86.7° 68° - - 876.0
5/23 8:40pm 91 6 G 8 71° 44% - - 48° 86.7° 68° - - 876.0
5/23 8:30pm 79 5 G 7 71° 51% - - 52° 86.7° 68° - - 879.0
5/23 8:20pm 70 3 G 4 70° 55% - - 53° 86.7° 68° - - 881.0
5/23 8:10pm 60 1 G 2 70° 54% - - 53° 86.7° 68° - - 880.0
5/23 8:00pm 183 1 G 3 71° 53% - - 53° 86.7° 68° - - 880.0
5/23 7:50pm 183 1 G 3 72° 53% - - 54° 86.7° 68° - - 880.0
5/23 7:40pm 38 2 G 4 72° 52% - - 54° 86.7° 68° - - 880.0
5/23 7:30pm 323 2 G 4 73° 50% - - 53° 86.7° 68° - - 880.0
5/23 7:20pm 278 4 G 6 74° 48% - - 53° 86.7° 68° - - 879.0
5/23 7:10pm 276 5 G 7 75° 45% - - 52° 86.7° 68° - - 878.0
5/23 7:00pm 278 5 G 7 78° 40% - - 51° 86.7° 68° - - 877.0
5/23 6:50pm 268 3 G 6 79° 36% - - 49° 86.7° 68° - - 876.0
5/23 6:40pm 268 4 G 7 79° 35% - - 49° 86.7° 68° - - 875.0
5/23 6:30pm 276 6 G 10 79° 34% - - 49° 86.7° 68° - - 875.0
5/23 6:20pm 269 6 G 10 81° 30% - - 46° 86.7° 68° - - 874.0
5/23 6:10pm 282 5 G 8 82° 27% - - 45° 86.7° 68° - - 873.0
5/23 6:00pm 277 3 G 6 83° 26% - - 44° 86.7° 68° - - 873.0
5/23 5:50pm 252 4 G 7 82° 25% - - 43° 86.7° 68° - - 873.0
5/23 5:40pm 276 4 G 7 82° 25% - - 43° 86.7° 68° - - 873.0
5/23 5:30pm 282 4 G 7 82° 25% - - 43° 86.7° 68° - - 873.0
5/23 5:20pm 265 4 G 7 82° 25% - - 42° 86.7° 68° - - 872.0
5/23 5:10pm 261 4 G 7 82° 25% - - 42° 86.7° 68° - - 872.0
5/23 5:00pm 264 5 G 9 82° 24% - - 41° 86.7° 68° - - 872.0
5/23 4:50pm 259 6 G 10 81° 25% - - 42° 86.7° 68° - - 873.0
5/23 4:40pm 270 5 G 9 81° 28% - - 45° 86.7° 68° - - 874.0
5/23 4:30pm 255 4 G 8 81° 30% - - 47° 86.7° 68° - - 874.0
5/23 4:20pm 277 6 G 10 80° 32% - - 48° 86.7° 68° - - 875.0
5/23 4:10pm 255 6 G 10 80° 33% - - 48° 86.7° 68° - - 875.0
5/23 4:00pm 276 6 G 12 80° 34% - - 49° 86.7° 68° - - 876.0
5/23 3:50pm 247 6 G 11 80° 36% - - 50° 86.7° 68° - - 876.0
5/23 3:40pm 257 6 G 9 79° 36% - - 50° 86.7° 68° - - 876.0
5/23 3:30pm 257 6 G 11 78° 42% - - 54° 86.7° 68° - - 878.0
5/23 3:20pm 249 7 G 12 78° 45% - - 55° 86.7° 68° - - 879.0
5/23 3:10pm 284 5 G 10 77° 47% - - 56° 86.7° 68° - - 880.0
5/23 3:00pm 280 7 G 13 77° 48% - - 56° 86.7° 68° - - 880.0
5/23 2:50pm 264 8 G 13 77° 49% - - 56° 86.7° 68° - - 880.0
5/23 2:40pm 269 10 G 16 77° 48% - - 56° 86.7° 68° - - 880.0
5/23 2:30pm 256 11 G 15 78° 47% - - 56° 86.7° 68° - - 880.0
5/23 2:20pm 258 9 G 14 79° 45% - - 56° 86.7° 68° - - 879.0
5/23 2:10pm 269 7 G 12 80° 44% - - 56° 86.7° 68° - - 879.0
5/23 2:00pm 262 6 G 9 79° 44% - - 55° 86.7° 68° - - 879.0
5/23 1:50pm 274 6 G 11 79° 45% - - 56° 86.7° 68° - - 879.0
5/23 1:40pm 259 8 G 12 79° 45% - - 55° 86.7° 68° - - 879.0
5/23 1:30pm 250 6 G 11 79° 44% - - 55° 86.7° 68° - - 879.0
5/23 1:20pm 253 7 G 12 80° 42% - - 55° 86.7° 68° - - 878.0
5/23 1:10pm 267 5 G 9 79° 42% - - 54° 86.7° 68° - - 878.0
5/23 1:00pm 253 7 G 12 78° 42% - - 54° 86.7° 68° - - 878.0
5/23 12:50pm 263 9 G 13 79° 41% - - 53° 86.7° 68° - - 878.0
5/23 12:40pm 264 10 G 15 81° 37% - - 52° 86.7° 68° - - 877.0
5/23 12:30pm 271 7 G 14 85° 27% - - 47° 86.7° 68° - - 874.0
5/23 12:20pm 242 5 G 14 85° 24% - - 44° 86.7° 68° - - 873.0
5/23 12:10pm 274 5 G 10 86° 23% - - 44° 86.7° 68° - - 873.0
5/23 12:00pm 276 7 G 10 85° 21% - - 41° 85.4° 68° - - 872.0
5/23 11:50am 261 6 G 10 85° 21% - - 41° 85.3° 68° - - 872.0
5/23 11:40am 279 5 G 9 85° 22% - - 41° 85.2° 68° - - 872.0
5/23 11:30am 261 5 G 8 84° 22% - - 41° 85.1° 68° - - 872.0
5/23 11:20am 275 6 G 9 83° 24% - - 42° 85.1° 68° - - 872.0
5/23 11:10am 279 7 G 11 84° 23% - - 42° 85.1° 68° - - 872.0
5/23 11:00am 272 3 G 7 85° 24% - - 44° 85.1° 68° - - 872.0
5/23 10:50am 255 2 G 4 83° 25% - - 43° 84.4° 68° - - 872.0
5/23 10:40am 267 2 G 4 82° 24% - - 41° 82.4° 68° - - 871.0
5/23 10:30am 277 2 G 6 81° 24% - - 40° 81.2° 68° - - 871.0
5/23 10:20am 280 3 G 5 80° 24% - - 40° 80.3° 68° - - 871.0
5/23 10:10am 274 3 G 5 79° 24% - - 39° 79.9° 68° - - 871.0
5/23 10:00am 293 2 G 4 78° 28% - - 42° 79.9° 68° - - 872.0
5/23 9:50am 292 4 G 6 77° 33% - - 46° 79.9° 68° - - 874.0
5/23 9:40am 277 4 G 6 78° 33% - - 47° 79.9° 68° - - 874.0
5/23 9:30am 278 2 G 3 79° 34% - - 48° 79.9° 68° - - 875.0
5/23 9:20am 282 3 G 4 79° 32% - - 47° 79.9° 68° - - 874.0
5/23 9:10am 281 2 G 3 79° 30% - - 45° 79.9° 68° - - 873.0
5/23 9:00am 238 1 G 3 78° 32% - - 46° 79.9° 68° - - 874.0
5/23 8:50am 234 1 G 2 77° 32% - - 45° 79.9° 68° - - 873.0
5/23 8:40am 297 1 G 5 76° 32% - - 44° 79.9° 68° - - 873.0
5/23 8:30am 240 2 G 5 77° 32% - - 45° 79.9° 68° - - 873.0
5/23 8:20am 45 2 G 3 77° 31% - - 44° 79.9° 68° - - 873.0
5/23 8:10am 4 1 G 2 76° 32% - - 44° 79.9° 68° - - 873.0
5/23 8:00am 301 1 G 3 77° 29% - - 43° 79.9° 68° - - 872.0
5/23 7:50am 103 1 G 2 79° 26% - - 41° 79.9° 68° - - 871.0
5/23 7:40am 78 2 G 4 77° 28% - - 41° 77.7° 68° - - 871.0
5/23 7:30am 82 3 G 5 76° 27% - - 39° 76.9° 68° - - 870.0
5/23 7:20am 96 4 G 5 75° 22% - - 34° 76.4° 68° - - 868.0
5/23 7:10am 90 4 G 6 74° 23% - - 35° 75° 68° - - 868.0
5/23 7:00am 93 3 G 5 74° 21% - - 32° 75° 68° - - 867.0
5/23 6:50am 89 4 G 5 72° 23% - - 32° 73.4° 68° - - 867.0
5/23 6:40am 91 5 G 6 71° 24% - - 32° 73.4° 68° - - 867.0
5/23 6:30am 101 6 G 7 70° 23% - - 31° 73.4° 68° - - 867.0
5/23 6:20am 94 4 G 6 71° 23% - - 31° 73.4° 68° - - 867.0
5/23 6:10am 95 3 G 4 72° 22% - - 30° 73.4° 68° - - 867.0
5/23 6:00am 81 3 G 5 71° 22% - - 30° 73.4° 68° - - 867.0